sensor_id;sensor_type;location;lat;lon;timestamp;P1;durP1;ratioP1;P2;durP2;ratioP2
75851;SDS011;64500;52.632;20.656;2023-05-08T00:00:10;34.50;;;19.00;;
75851;SDS011;64500;52.632;20.656;2023-05-08T00:02:58;41.60;;;21.30;;
75851;SDS011;64500;52.632;20.656;2023-05-08T00:05:25;45.20;;;20.90;;
75851;SDS011;64500;52.632;20.656;2023-05-08T00:07:52;42.70;;;21.00;;
75851;SDS011;64500;52.632;20.656;2023-05-08T00:10:24;40.00;;;19.90;;
75851;SDS011;64500;52.632;20.656;2023-05-08T00:12:51;41.60;;;20.10;;
75851;SDS011;64500;52.632;20.656;2023-05-08T00:15:18;44.00;;;21.50;;
75851;SDS011;64500;52.632;20.656;2023-05-08T00:17:45;44.40;;;21.70;;
75851;SDS011;64500;52.632;20.656;2023-05-08T00:20:12;48.80;;;22.60;;
75851;SDS011;64500;52.632;20.656;2023-05-08T00:22:39;45.00;;;22.50;;
75851;SDS011;64500;52.632;20.656;2023-05-08T00:25:06;45.10;;;23.10;;
75851;SDS011;64500;52.632;20.656;2023-05-08T00:27:34;43.30;;;21.10;;
75851;SDS011;64500;52.632;20.656;2023-05-08T00:30:01;40.00;;;19.90;;
75851;SDS011;64500;52.632;20.656;2023-05-08T00:32:28;39.80;;;19.30;;
75851;SDS011;64500;52.632;20.656;2023-05-08T00:34:55;42.60;;;19.00;;
75851;SDS011;64500;52.632;20.656;2023-05-08T00:37:22;35.10;;;18.50;;
75851;SDS011;64500;52.632;20.656;2023-05-08T00:39:49;38.40;;;17.30;;
75851;SDS011;64500;52.632;20.656;2023-05-08T00:42:16;33.20;;;17.70;;
75851;SDS011;64500;52.632;20.656;2023-05-08T00:44:42;34.90;;;17.30;;
75851;SDS011;64500;52.632;20.656;2023-05-08T00:47:09;34.80;;;18.20;;
75851;SDS011;64500;52.632;20.656;2023-05-08T00:49:36;33.10;;;18.10;;
75851;SDS011;64500;52.632;20.656;2023-05-08T00:52:04;38.10;;;18.90;;
75851;SDS011;64500;52.632;20.656;2023-05-08T00:54:35;35.20;;;17.70;;
75851;SDS011;64500;52.632;20.656;2023-05-08T00:57:04;34.00;;;17.10;;
75851;SDS011;64500;52.632;20.656;2023-05-08T00:59:32;34.80;;;17.60;;
75851;SDS011;64500;52.632;20.656;2023-05-08T01:02:00;32.40;;;17.30;;
75851;SDS011;64500;52.632;20.656;2023-05-08T01:04:27;32.80;;;17.00;;
75851;SDS011;64500;52.632;20.656;2023-05-08T01:06:55;34.30;;;17.20;;
75851;SDS011;64500;52.632;20.656;2023-05-08T01:09:22;35.50;;;18.30;;
75851;SDS011;64500;52.632;20.656;2023-05-08T01:11:52;35.90;;;17.60;;
75851;SDS011;64500;52.632;20.656;2023-05-08T01:14:30;34.50;;;17.70;;
75851;SDS011;64500;52.632;20.656;2023-05-08T01:19:39;36.90;;;18.30;;
75851;SDS011;64500;52.632;20.656;2023-05-08T01:22:20;36.30;;;18.20;;
75851;SDS011;64500;52.632;20.656;2023-05-08T01:33:32;35.70;;;18.40;;
75851;SDS011;64500;52.632;20.656;2023-05-08T01:41:15;151.10;;;59.30;;
75851;SDS011;64500;52.632;20.656;2023-05-08T01:46:18;65.20;;;30.80;;
75851;SDS011;64500;52.632;20.656;2023-05-08T01:51:36;38.40;;;19.60;;
75851;SDS011;64500;52.632;20.656;2023-05-08T01:54:05;42.80;;;19.10;;
75851;SDS011;64500;52.632;20.656;2023-05-08T01:56:33;36.10;;;18.00;;
75851;SDS011;64500;52.632;20.656;2023-05-08T01:59:01;37.00;;;18.80;;
75851;SDS011;64500;52.632;20.656;2023-05-08T02:01:29;34.60;;;18.80;;
75851;SDS011;64500;52.632;20.656;2023-05-08T02:03:57;38.00;;;18.70;;
75851;SDS011;64500;52.632;20.656;2023-05-08T02:06:25;38.00;;;20.20;;
75851;SDS011;64500;52.632;20.656;2023-05-08T02:08:53;45.10;;;21.10;;
75851;SDS011;64500;52.632;20.656;2023-05-08T02:11:22;45.00;;;23.50;;
75851;SDS011;64500;52.632;20.656;2023-05-08T02:13:50;71.70;;;33.90;;
75851;SDS011;64500;52.632;20.656;2023-05-08T02:16:17;86.30;;;41.00;;
75851;SDS011;64500;52.632;20.656;2023-05-08T02:18:46;150.50;;;71.10;;
75851;SDS011;64500;52.632;20.656;2023-05-08T02:21:14;109.70;;;52.10;;
75851;SDS011;64500;52.632;20.656;2023-05-08T02:23:42;177.40;;;80.60;;
75851;SDS011;64500;52.632;20.656;2023-05-08T02:26:09;134.40;;;64.60;;
75851;SDS011;64500;52.632;20.656;2023-05-08T02:28:37;147.00;;;70.90;;
75851;SDS011;64500;52.632;20.656;2023-05-08T02:31:05;133.90;;;62.70;;
75851;SDS011;64500;52.632;20.656;2023-05-08T02:33:33;78.20;;;40.40;;
75851;SDS011;64500;52.632;20.656;2023-05-08T02:36:00;68.30;;;34.40;;
75851;SDS011;64500;52.632;20.656;2023-05-08T02:38:28;52.50;;;25.40;;
75851;SDS011;64500;52.632;20.656;2023-05-08T02:40:56;51.50;;;26.20;;
75851;SDS011;64500;52.632;20.656;2023-05-08T02:43:23;44.90;;;22.60;;
75851;SDS011;64500;52.632;20.656;2023-05-08T02:45:58;42.20;;;21.70;;
75851;SDS011;64500;52.632;20.656;2023-05-08T02:48:32;40.20;;;20.50;;
75851;SDS011;64500;52.632;20.656;2023-05-08T02:53:34;43.90;;;22.10;;
75851;SDS011;64500;52.632;20.656;2023-05-08T02:56:09;47.00;;;22.00;;
75851;SDS011;64500;52.632;20.656;2023-05-08T02:58:44;48.40;;;23.60;;
75851;SDS011;64500;52.632;20.656;2023-05-08T03:01:16;46.70;;;23.00;;
75851;SDS011;64500;52.632;20.656;2023-05-08T03:03:48;50.60;;;25.00;;
75851;SDS011;64500;52.632;20.656;2023-05-08T03:06:20;43.50;;;22.70;;
75851;SDS011;64500;52.632;20.656;2023-05-08T03:08:47;45.20;;;22.80;;
75851;SDS011;64500;52.632;20.656;2023-05-08T03:11:16;44.10;;;23.10;;
75851;SDS011;64500;52.632;20.656;2023-05-08T03:13:43;55.30;;;29.10;;
75851;SDS011;64500;52.632;20.656;2023-05-08T03:16:14;58.90;;;30.00;;
75851;SDS011;64500;52.632;20.656;2023-05-08T03:18:52;50.10;;;26.60;;
75851;SDS011;64500;52.632;20.656;2023-05-08T03:21:20;52.70;;;28.60;;
75851;SDS011;64500;52.632;20.656;2023-05-08T03:23:50;48.10;;;27.10;;
75851;SDS011;64500;52.632;20.656;2023-05-08T03:26:18;47.80;;;25.70;;
75851;SDS011;64500;52.632;20.656;2023-05-08T03:28:49;47.50;;;23.20;;
75851;SDS011;64500;52.632;20.656;2023-05-08T03:31:16;43.50;;;23.70;;
75851;SDS011;64500;52.632;20.656;2023-05-08T03:33:44;45.40;;;24.20;;
75851;SDS011;64500;52.632;20.656;2023-05-08T03:36:13;42.70;;;25.30;;
75851;SDS011;64500;52.632;20.656;2023-05-08T03:38:40;48.60;;;23.90;;
75851;SDS011;64500;52.632;20.656;2023-05-08T03:41:07;51.20;;;25.50;;
75851;SDS011;64500;52.632;20.656;2023-05-08T03:43:37;102.40;;;29.40;;
75851;SDS011;64500;52.632;20.656;2023-05-08T03:46:04;1894.60;;;154.10;;
75851;SDS011;64500;52.632;20.656;2023-05-08T03:48:35;1999.90;;;220.50;;
75851;SDS011;64500;52.632;20.656;2023-05-08T03:51:03;1999.90;;;251.10;;
75851;SDS011;64500;52.632;20.656;2023-05-08T03:53:31;1999.90;;;216.30;;
75851;SDS011;64500;52.632;20.656;2023-05-08T03:55:58;1849.00;;;152.50;;
75851;SDS011;64500;52.632;20.656;2023-05-08T04:06:14;32.80;;;21.30;;
75851;SDS011;64500;52.632;20.656;2023-05-08T04:08:47;35.50;;;21.60;;
75851;SDS011;64500;52.632;20.656;2023-05-08T04:11:17;26.70;;;18.20;;
75851;SDS011;64500;52.632;20.656;2023-05-08T04:13:49;37.40;;;23.40;;
75851;SDS011;64500;52.632;20.656;2023-05-08T04:16:22;32.60;;;19.00;;
75851;SDS011;64500;52.632;20.656;2023-05-08T04:18:57;32.80;;;20.00;;
75851;SDS011;64500;52.632;20.656;2023-05-08T04:21:25;26.80;;;16.40;;
75851;SDS011;64500;52.632;20.656;2023-05-08T04:23:55;23.90;;;14.50;;
75851;SDS011;64500;52.632;20.656;2023-05-08T04:26:23;23.10;;;13.50;;
75851;SDS011;64500;52.632;20.656;2023-05-08T04:28:50;26.30;;;14.40;;
75851;SDS011;64500;52.632;20.656;2023-05-08T04:31:18;22.20;;;13.70;;
75851;SDS011;64500;52.632;20.656;2023-05-08T04:33:45;26.00;;;17.60;;
75851;SDS011;64500;52.632;20.656;2023-05-08T04:36:12;23.70;;;13.70;;
75851;SDS011;64500;52.632;20.656;2023-05-08T04:38:40;19.10;;;11.90;;
75851;SDS011;64500;52.632;20.656;2023-05-08T04:41:07;21.30;;;12.90;;
75851;SDS011;64500;52.632;20.656;2023-05-08T04:43:34;18.40;;;13.20;;
75851;SDS011;64500;52.632;20.656;2023-05-08T04:46:01;27.20;;;17.70;;
75851;SDS011;64500;52.632;20.656;2023-05-08T04:48:30;24.40;;;16.30;;
75851;SDS011;64500;52.632;20.656;2023-05-08T04:51:00;27.80;;;20.60;;
75851;SDS011;64500;52.632;20.656;2023-05-08T04:53:27;27.50;;;20.10;;
75851;SDS011;64500;52.632;20.656;2023-05-08T04:55:54;25.00;;;16.70;;
75851;SDS011;64500;52.632;20.656;2023-05-08T04:58:22;22.90;;;14.80;;
75851;SDS011;64500;52.632;20.656;2023-05-08T05:00:49;25.30;;;15.50;;
75851;SDS011;64500;52.632;20.656;2023-05-08T05:03:17;24.20;;;15.00;;
75851;SDS011;64500;52.632;20.656;2023-05-08T05:05:44;24.70;;;15.90;;
75851;SDS011;64500;52.632;20.656;2023-05-08T05:08:10;23.50;;;15.20;;
75851;SDS011;64500;52.632;20.656;2023-05-08T05:10:38;22.60;;;14.40;;
75851;SDS011;64500;52.632;20.656;2023-05-08T05:13:05;19.90;;;14.00;;
75851;SDS011;64500;52.632;20.656;2023-05-08T05:15:34;19.10;;;12.90;;
75851;SDS011;64500;52.632;20.656;2023-05-08T05:18:01;18.40;;;12.10;;
75851;SDS011;64500;52.632;20.656;2023-05-08T05:20:28;19.10;;;12.00;;
75851;SDS011;64500;52.632;20.656;2023-05-08T05:22:55;17.20;;;11.40;;
75851;SDS011;64500;52.632;20.656;2023-05-08T05:25:23;12.80;;;8.10;;
75851;SDS011;64500;52.632;20.656;2023-05-08T05:27:50;11.70;;;5.60;;
75851;SDS011;64500;52.632;20.656;2023-05-08T05:30:17;11.00;;;5.60;;
75851;SDS011;64500;52.632;20.656;2023-05-08T05:32:44;10.50;;;6.00;;
75851;SDS011;64500;52.632;20.656;2023-05-08T05:35:11;9.10;;;5.10;;
75851;SDS011;64500;52.632;20.656;2023-05-08T05:37:38;9.70;;;4.90;;
75851;SDS011;64500;52.632;20.656;2023-05-08T05:40:05;8.40;;;4.40;;
75851;SDS011;64500;52.632;20.656;2023-05-08T05:42:33;8.60;;;4.80;;
75851;SDS011;64500;52.632;20.656;2023-05-08T05:45:00;9.30;;;4.80;;
75851;SDS011;64500;52.632;20.656;2023-05-08T05:47:29;9.50;;;4.40;;
75851;SDS011;64500;52.632;20.656;2023-05-08T05:49:56;9.80;;;4.50;;
75851;SDS011;64500;52.632;20.656;2023-05-08T05:52:24;8.60;;;4.30;;
75851;SDS011;64500;52.632;20.656;2023-05-08T05:54:51;8.70;;;4.50;;
75851;SDS011;64500;52.632;20.656;2023-05-08T05:57:18;9.10;;;4.50;;
75851;SDS011;64500;52.632;20.656;2023-05-08T05:59:45;13.40;;;4.80;;
75851;SDS011;64500;52.632;20.656;2023-05-08T06:02:12;9.30;;;4.60;;
75851;SDS011;64500;52.632;20.656;2023-05-08T06:04:43;10.50;;;4.10;;
75851;SDS011;64500;52.632;20.656;2023-05-08T06:07:11;8.40;;;4.20;;
75851;SDS011;64500;52.632;20.656;2023-05-08T06:09:38;9.40;;;4.20;;
75851;SDS011;64500;52.632;20.656;2023-05-08T06:12:05;8.40;;;4.20;;
75851;SDS011;64500;52.632;20.656;2023-05-08T06:14:32;8.40;;;4.70;;
75851;SDS011;64500;52.632;20.656;2023-05-08T06:16:59;12.00;;;4.40;;
75851;SDS011;64500;52.632;20.656;2023-05-08T06:19:26;10.20;;;4.30;;
75851;SDS011;64500;52.632;20.656;2023-05-08T06:21:54;10.60;;;4.20;;
75851;SDS011;64500;52.632;20.656;2023-05-08T06:24:21;8.80;;;4.30;;
75851;SDS011;64500;52.632;20.656;2023-05-08T06:26:48;9.60;;;4.10;;
75851;SDS011;64500;52.632;20.656;2023-05-08T06:29:15;7.70;;;3.90;;
75851;SDS011;64500;52.632;20.656;2023-05-08T06:31:42;8.00;;;3.70;;
75851;SDS011;64500;52.632;20.656;2023-05-08T06:34:09;10.00;;;4.10;;
75851;SDS011;64500;52.632;20.656;2023-05-08T06:36:36;8.00;;;3.70;;
75851;SDS011;64500;52.632;20.656;2023-05-08T06:39:04;8.50;;;3.30;;
75851;SDS011;64500;52.632;20.656;2023-05-08T06:41:31;7.80;;;3.30;;
75851;SDS011;64500;52.632;20.656;2023-05-08T06:43:59;6.30;;;3.20;;
75851;SDS011;64500;52.632;20.656;2023-05-08T06:46:26;7.20;;;3.60;;
75851;SDS011;64500;52.632;20.656;2023-05-08T06:48:53;9.00;;;4.00;;
75851;SDS011;64500;52.632;20.656;2023-05-08T06:51:19;7.80;;;3.00;;
75851;SDS011;64500;52.632;20.656;2023-05-08T06:53:48;7.80;;;3.10;;
75851;SDS011;64500;52.632;20.656;2023-05-08T06:56:15;7.70;;;3.30;;
75851;SDS011;64500;52.632;20.656;2023-05-08T06:58:43;6.90;;;3.00;;
75851;SDS011;64500;52.632;20.656;2023-05-08T07:01:10;7.20;;;3.30;;
75851;SDS011;64500;52.632;20.656;2023-05-08T07:03:37;9.30;;;3.20;;
75851;SDS011;64500;52.632;20.656;2023-05-08T07:06:07;7.30;;;3.10;;
75851;SDS011;64500;52.632;20.656;2023-05-08T07:08:37;8.30;;;3.50;;
75851;SDS011;64500;52.632;20.656;2023-05-08T07:11:04;7.20;;;3.00;;
75851;SDS011;64500;52.632;20.656;2023-05-08T07:13:31;7.60;;;3.10;;
75851;SDS011;64500;52.632;20.656;2023-05-08T07:16:01;8.30;;;3.30;;
75851;SDS011;64500;52.632;20.656;2023-05-08T07:18:28;7.60;;;3.50;;
75851;SDS011;64500;52.632;20.656;2023-05-08T07:20:55;7.60;;;3.30;;
75851;SDS011;64500;52.632;20.656;2023-05-08T07:23:24;7.50;;;3.50;;
75851;SDS011;64500;52.632;20.656;2023-05-08T07:25:53;8.60;;;3.00;;
75851;SDS011;64500;52.632;20.656;2023-05-08T07:28:20;7.40;;;3.00;;
75851;SDS011;64500;52.632;20.656;2023-05-08T07:30:47;8.40;;;2.90;;
75851;SDS011;64500;52.632;20.656;2023-05-08T07:33:14;9.10;;;3.70;;
75851;SDS011;64500;52.632;20.656;2023-05-08T07:35:41;6.90;;;2.60;;
75851;SDS011;64500;52.632;20.656;2023-05-08T07:38:08;8.90;;;2.80;;
75851;SDS011;64500;52.632;20.656;2023-05-08T07:40:35;7.50;;;2.70;;
75851;SDS011;64500;52.632;20.656;2023-05-08T07:43:02;7.00;;;2.80;;
75851;SDS011;64500;52.632;20.656;2023-05-08T07:45:29;7.00;;;2.80;;
75851;SDS011;64500;52.632;20.656;2023-05-08T07:47:57;6.40;;;2.80;;
75851;SDS011;64500;52.632;20.656;2023-05-08T07:50:24;6.20;;;2.60;;
75851;SDS011;64500;52.632;20.656;2023-05-08T07:52:53;6.90;;;2.80;;
75851;SDS011;64500;52.632;20.656;2023-05-08T07:55:20;6.90;;;3.00;;
75851;SDS011;64500;52.632;20.656;2023-05-08T07:57:47;7.40;;;3.10;;
75851;SDS011;64500;52.632;20.656;2023-05-08T08:00:15;6.60;;;2.60;;
75851;SDS011;64500;52.632;20.656;2023-05-08T08:02:42;7.60;;;3.50;;
75851;SDS011;64500;52.632;20.656;2023-05-08T08:05:10;7.00;;;3.00;;
75851;SDS011;64500;52.632;20.656;2023-05-08T08:07:37;6.30;;;2.60;;
75851;SDS011;64500;52.632;20.656;2023-05-08T08:10:04;8.40;;;2.90;;
75851;SDS011;64500;52.632;20.656;2023-05-08T08:12:31;8.20;;;3.10;;
75851;SDS011;64500;52.632;20.656;2023-05-08T08:14:58;7.80;;;2.70;;
75851;SDS011;64500;52.632;20.656;2023-05-08T08:17:25;7.20;;;2.70;;
75851;SDS011;64500;52.632;20.656;2023-05-08T08:19:52;7.70;;;2.60;;
75851;SDS011;64500;52.632;20.656;2023-05-08T08:22:19;7.10;;;3.00;;
75851;SDS011;64500;52.632;20.656;2023-05-08T08:24:47;7.10;;;2.90;;
75851;SDS011;64500;52.632;20.656;2023-05-08T08:27:13;7.80;;;2.90;;
75851;SDS011;64500;52.632;20.656;2023-05-08T08:29:40;6.50;;;3.00;;
75851;SDS011;64500;52.632;20.656;2023-05-08T08:32:07;12.00;;;3.00;;
75851;SDS011;64500;52.632;20.656;2023-05-08T08:34:35;6.90;;;2.80;;
75851;SDS011;64500;52.632;20.656;2023-05-08T08:37:05;7.30;;;2.80;;
75851;SDS011;64500;52.632;20.656;2023-05-08T08:39:32;6.00;;;2.60;;
75851;SDS011;64500;52.632;20.656;2023-05-08T08:42:00;10.10;;;3.40;;
75851;SDS011;64500;52.632;20.656;2023-05-08T08:44:27;6.00;;;2.70;;
75851;SDS011;64500;52.632;20.656;2023-05-08T08:46:53;6.60;;;2.80;;
75851;SDS011;64500;52.632;20.656;2023-05-08T08:49:24;6.90;;;2.70;;
75851;SDS011;64500;52.632;20.656;2023-05-08T08:51:54;7.30;;;2.60;;
75851;SDS011;64500;52.632;20.656;2023-05-08T08:54:27;8.00;;;3.30;;
75851;SDS011;64500;52.632;20.656;2023-05-08T08:56:54;7.20;;;2.60;;
75851;SDS011;64500;52.632;20.656;2023-05-08T08:59:24;7.40;;;2.90;;
75851;SDS011;64500;52.632;20.656;2023-05-08T09:01:54;8.50;;;2.80;;
75851;SDS011;64500;52.632;20.656;2023-05-08T09:04:21;7.70;;;3.10;;
75851;SDS011;64500;52.632;20.656;2023-05-08T09:06:52;8.80;;;3.10;;
75851;SDS011;64500;52.632;20.656;2023-05-08T09:09:20;9.60;;;2.80;;
75851;SDS011;64500;52.632;20.656;2023-05-08T09:11:48;9.60;;;2.70;;
75851;SDS011;64500;52.632;20.656;2023-05-08T09:14:15;6.30;;;2.70;;
75851;SDS011;64500;52.632;20.656;2023-05-08T09:16:42;5.70;;;2.90;;
75851;SDS011;64500;52.632;20.656;2023-05-08T09:19:09;6.50;;;2.60;;
75851;SDS011;64500;52.632;20.656;2023-05-08T09:21:39;8.00;;;2.90;;
75851;SDS011;64500;52.632;20.656;2023-05-08T09:24:07;6.70;;;2.90;;
75851;SDS011;64500;52.632;20.656;2023-05-08T09:26:34;7.40;;;2.80;;
75851;SDS011;64500;52.632;20.656;2023-05-08T09:31:40;11.40;;;2.90;;
75851;SDS011;64500;52.632;20.656;2023-05-08T09:34:07;8.10;;;3.40;;
75851;SDS011;64500;52.632;20.656;2023-05-08T09:36:35;6.00;;;2.70;;
75851;SDS011;64500;52.632;20.656;2023-05-08T09:39:02;6.90;;;2.90;;
75851;SDS011;64500;52.632;20.656;2023-05-08T09:41:29;7.30;;;3.00;;
75851;SDS011;64500;52.632;20.656;2023-05-08T09:44:03;9.80;;;3.00;;
75851;SDS011;64500;52.632;20.656;2023-05-08T09:46:31;7.80;;;3.10;;
75851;SDS011;64500;52.632;20.656;2023-05-08T09:49:00;8.20;;;3.00;;
75851;SDS011;64500;52.632;20.656;2023-05-08T09:51:28;8.10;;;3.20;;
75851;SDS011;64500;52.632;20.656;2023-05-08T09:53:56;6.10;;;2.80;;
75851;SDS011;64500;52.632;20.656;2023-05-08T09:56:39;6.60;;;2.80;;
75851;SDS011;64500;52.632;20.656;2023-05-08T09:59:22;9.70;;;3.20;;
75851;SDS011;64500;52.632;20.656;2023-05-08T10:01:49;6.60;;;2.90;;
75851;SDS011;64500;52.632;20.656;2023-05-08T10:04:17;6.90;;;2.90;;
75851;SDS011;64500;52.632;20.656;2023-05-08T10:06:54;7.10;;;3.00;;
75851;SDS011;64500;52.632;20.656;2023-05-08T10:09:21;8.50;;;3.30;;
75851;SDS011;64500;52.632;20.656;2023-05-08T10:11:48;6.90;;;2.60;;
75851;SDS011;64500;52.632;20.656;2023-05-08T10:14:19;5.90;;;2.60;;
75851;SDS011;64500;52.632;20.656;2023-05-08T10:16:47;7.70;;;3.00;;
75851;SDS011;64500;52.632;20.656;2023-05-08T10:19:15;8.30;;;2.70;;
75851;SDS011;64500;52.632;20.656;2023-05-08T10:21:47;7.40;;;2.90;;
75851;SDS011;64500;52.632;20.656;2023-05-08T10:24:16;6.30;;;2.90;;
75851;SDS011;64500;52.632;20.656;2023-05-08T10:26:47;7.60;;;2.90;;
75851;SDS011;64500;52.632;20.656;2023-05-08T10:29:20;7.60;;;3.10;;
75851;SDS011;64500;52.632;20.656;2023-05-08T10:31:51;7.10;;;3.00;;
75851;SDS011;64500;52.632;20.656;2023-05-08T10:34:21;7.00;;;3.20;;
75851;SDS011;64500;52.632;20.656;2023-05-08T10:36:48;6.50;;;2.70;;
75851;SDS011;64500;52.632;20.656;2023-05-08T10:39:15;6.20;;;2.50;;
75851;SDS011;64500;52.632;20.656;2023-05-08T10:41:43;9.10;;;2.40;;
75851;SDS011;64500;52.632;20.656;2023-05-08T10:44:10;7.30;;;2.90;;
75851;SDS011;64500;52.632;20.656;2023-05-08T10:49:17;8.30;;;2.80;;
75851;SDS011;64500;52.632;20.656;2023-05-08T10:54:17;8.20;;;3.00;;
75851;SDS011;64500;52.632;20.656;2023-05-08T10:56:44;8.50;;;2.80;;
75851;SDS011;64500;52.632;20.656;2023-05-08T10:59:18;5.70;;;2.20;;
75851;SDS011;64500;52.632;20.656;2023-05-08T11:01:48;6.40;;;2.80;;
75851;SDS011;64500;52.632;20.656;2023-05-08T11:04:19;6.70;;;2.60;;
75851;SDS011;64500;52.632;20.656;2023-05-08T11:06:47;9.50;;;2.60;;
75851;SDS011;64500;52.632;20.656;2023-05-08T11:09:19;7.70;;;3.00;;
75851;SDS011;64500;52.632;20.656;2023-05-08T11:11:57;6.90;;;2.50;;
75851;SDS011;64500;52.632;20.656;2023-05-08T11:14:26;7.10;;;2.40;;
75851;SDS011;64500;52.632;20.656;2023-05-08T11:19:22;8.30;;;2.90;;
75851;SDS011;64500;52.632;20.656;2023-05-08T11:27:30;6.50;;;2.80;;
75851;SDS011;64500;52.632;20.656;2023-05-08T11:32:55;9.00;;;3.00;;
75851;SDS011;64500;52.632;20.656;2023-05-08T11:35:43;6.60;;;2.40;;
75851;SDS011;64500;52.632;20.656;2023-05-08T11:40:54;6.50;;;2.50;;
75851;SDS011;64500;52.632;20.656;2023-05-08T11:43:24;8.00;;;2.80;;
75851;SDS011;64500;52.632;20.656;2023-05-08T11:45:53;7.70;;;2.80;;
75851;SDS011;64500;52.632;20.656;2023-05-08T11:48:20;6.20;;;2.60;;
75851;SDS011;64500;52.632;20.656;2023-05-08T11:50:48;7.90;;;2.80;;
75851;SDS011;64500;52.632;20.656;2023-05-08T11:53:15;7.70;;;2.40;;
75851;SDS011;64500;52.632;20.656;2023-05-08T11:55:42;5.80;;;2.30;;
75851;SDS011;64500;52.632;20.656;2023-05-08T11:58:15;12.10;;;3.00;;
75851;SDS011;64500;52.632;20.656;2023-05-08T12:00:42;6.50;;;2.40;;
75851;SDS011;64500;52.632;20.656;2023-05-08T12:03:14;5.60;;;2.10;;
75851;SDS011;64500;52.632;20.656;2023-05-08T12:05:41;7.50;;;2.50;;
75851;SDS011;64500;52.632;20.656;2023-05-08T12:08:09;6.60;;;2.70;;
75851;SDS011;64500;52.632;20.656;2023-05-08T12:10:39;6.60;;;2.30;;
75851;SDS011;64500;52.632;20.656;2023-05-08T12:13:20;6.80;;;2.40;;
75851;SDS011;64500;52.632;20.656;2023-05-08T12:15:49;6.50;;;2.60;;
75851;SDS011;64500;52.632;20.656;2023-05-08T12:18:16;8.70;;;3.00;;
75851;SDS011;64500;52.632;20.656;2023-05-08T12:20:43;7.20;;;2.60;;
75851;SDS011;64500;52.632;20.656;2023-05-08T12:23:10;6.50;;;2.10;;
75851;SDS011;64500;52.632;20.656;2023-05-08T12:25:40;7.50;;;2.50;;
75851;SDS011;64500;52.632;20.656;2023-05-08T12:28:10;6.60;;;2.10;;
75851;SDS011;64500;52.632;20.656;2023-05-08T12:30:37;7.30;;;2.40;;
75851;SDS011;64500;52.632;20.656;2023-05-08T12:33:04;7.20;;;2.20;;
75851;SDS011;64500;52.632;20.656;2023-05-08T12:35:31;6.10;;;2.40;;
75851;SDS011;64500;52.632;20.656;2023-05-08T12:38:01;6.80;;;2.60;;
75851;SDS011;64500;52.632;20.656;2023-05-08T12:41:03;6.40;;;2.60;;
75851;SDS011;64500;52.632;20.656;2023-05-08T12:43:32;7.00;;;2.70;;
75851;SDS011;64500;52.632;20.656;2023-05-08T12:46:00;5.70;;;2.40;;
75851;SDS011;64500;52.632;20.656;2023-05-08T12:48:27;6.40;;;2.60;;
75851;SDS011;64500;52.632;20.656;2023-05-08T12:51:00;6.20;;;2.50;;
75851;SDS011;64500;52.632;20.656;2023-05-08T12:53:30;6.30;;;2.20;;
75851;SDS011;64500;52.632;20.656;2023-05-08T12:56:02;5.90;;;2.50;;
75851;SDS011;64500;52.632;20.656;2023-05-08T12:58:30;5.30;;;2.10;;
75851;SDS011;64500;52.632;20.656;2023-05-08T13:03:31;6.60;;;2.30;;
75851;SDS011;64500;52.632;20.656;2023-05-08T13:05:59;6.70;;;2.40;;
75851;SDS011;64500;52.632;20.656;2023-05-08T13:08:33;6.20;;;2.80;;
75851;SDS011;64500;52.632;20.656;2023-05-08T13:11:01;5.70;;;2.50;;
75851;SDS011;64500;52.632;20.656;2023-05-08T13:13:30;5.90;;;2.30;;
75851;SDS011;64500;52.632;20.656;2023-05-08T13:16:01;8.90;;;2.40;;
75851;SDS011;64500;52.632;20.656;2023-05-08T13:18:28;9.00;;;2.30;;
75851;SDS011;64500;52.632;20.656;2023-05-08T13:20:55;7.10;;;2.20;;
75851;SDS011;64500;52.632;20.656;2023-05-08T13:23:23;6.40;;;2.00;;
75851;SDS011;64500;52.632;20.656;2023-05-08T13:25:50;7.80;;;2.20;;
75851;SDS011;64500;52.632;20.656;2023-05-08T13:28:17;7.00;;;2.40;;
75851;SDS011;64500;52.632;20.656;2023-05-08T13:30:44;6.10;;;2.00;;
75851;SDS011;64500;52.632;20.656;2023-05-08T13:33:11;6.10;;;2.20;;
75851;SDS011;64500;52.632;20.656;2023-05-08T13:35:41;6.70;;;2.60;;
75851;SDS011;64500;52.632;20.656;2023-05-08T13:38:08;6.70;;;2.20;;
75851;SDS011;64500;52.632;20.656;2023-05-08T13:40:34;6.00;;;2.40;;
75851;SDS011;64500;52.632;20.656;2023-05-08T13:43:02;9.70;;;2.50;;
75851;SDS011;64500;52.632;20.656;2023-05-08T13:45:29;6.00;;;2.60;;
75851;SDS011;64500;52.632;20.656;2023-05-08T13:47:57;6.10;;;2.40;;
75851;SDS011;64500;52.632;20.656;2023-05-08T13:50:24;8.70;;;2.60;;
75851;SDS011;64500;52.632;20.656;2023-05-08T13:52:51;8.10;;;2.60;;
75851;SDS011;64500;52.632;20.656;2023-05-08T13:55:18;8.00;;;2.40;;
75851;SDS011;64500;52.632;20.656;2023-05-08T13:57:47;8.90;;;2.90;;
75851;SDS011;64500;52.632;20.656;2023-05-08T14:00:16;6.50;;;2.60;;
75851;SDS011;64500;52.632;20.656;2023-05-08T14:02:43;10.00;;;2.60;;
75851;SDS011;64500;52.632;20.656;2023-05-08T14:05:11;6.50;;;2.40;;
75851;SDS011;64500;52.632;20.656;2023-05-08T14:07:37;6.60;;;2.50;;
75851;SDS011;64500;52.632;20.656;2023-05-08T14:10:04;6.00;;;2.20;;
75851;SDS011;64500;52.632;20.656;2023-05-08T14:12:32;6.00;;;2.50;;
75851;SDS011;64500;52.632;20.656;2023-05-08T14:15:05;6.00;;;2.10;;
75851;SDS011;64500;52.632;20.656;2023-05-08T14:17:32;9.20;;;2.30;;
75851;SDS011;64500;52.632;20.656;2023-05-08T14:20:01;9.00;;;3.00;;
75851;SDS011;64500;52.632;20.656;2023-05-08T14:22:30;6.20;;;2.60;;
75851;SDS011;64500;52.632;20.656;2023-05-08T14:24:57;7.50;;;2.30;;
75851;SDS011;64500;52.632;20.656;2023-05-08T14:27:24;5.90;;;2.10;;
75851;SDS011;64500;52.632;20.656;2023-05-08T14:29:51;7.60;;;2.20;;
75851;SDS011;64500;52.632;20.656;2023-05-08T14:32:19;6.50;;;2.70;;
75851;SDS011;64500;52.632;20.656;2023-05-08T14:34:46;8.10;;;2.40;;
75851;SDS011;64500;52.632;20.656;2023-05-08T14:37:13;6.30;;;2.50;;
75851;SDS011;64500;52.632;20.656;2023-05-08T14:39:42;6.50;;;2.40;;
75851;SDS011;64500;52.632;20.656;2023-05-08T14:42:10;10.50;;;2.70;;
75851;SDS011;64500;52.632;20.656;2023-05-08T14:44:40;6.00;;;2.60;;
75851;SDS011;64500;52.632;20.656;2023-05-08T14:47:07;8.40;;;2.70;;
75851;SDS011;64500;52.632;20.656;2023-05-08T14:49:34;6.50;;;2.50;;
75851;SDS011;64500;52.632;20.656;2023-05-08T14:52:01;7.10;;;2.50;;
75851;SDS011;64500;52.632;20.656;2023-05-08T14:54:28;6.40;;;2.30;;
75851;SDS011;64500;52.632;20.656;2023-05-08T14:56:55;7.10;;;2.60;;
75851;SDS011;64500;52.632;20.656;2023-05-08T14:59:22;9.20;;;2.60;;
75851;SDS011;64500;52.632;20.656;2023-05-08T15:01:49;8.00;;;2.50;;
75851;SDS011;64500;52.632;20.656;2023-05-08T15:04:16;6.70;;;2.60;;
75851;SDS011;64500;52.632;20.656;2023-05-08T15:06:43;6.50;;;2.50;;
75851;SDS011;64500;52.632;20.656;2023-05-08T15:09:10;7.40;;;2.30;;
75851;SDS011;64500;52.632;20.656;2023-05-08T15:11:38;9.00;;;2.80;;
75851;SDS011;64500;52.632;20.656;2023-05-08T15:14:05;6.40;;;2.50;;
75851;SDS011;64500;52.632;20.656;2023-05-08T15:16:32;6.40;;;2.20;;
75851;SDS011;64500;52.632;20.656;2023-05-08T15:19:01;8.30;;;2.30;;
75851;SDS011;64500;52.632;20.656;2023-05-08T15:21:28;10.70;;;2.50;;
75851;SDS011;64500;52.632;20.656;2023-05-08T15:23:55;9.40;;;2.60;;
75851;SDS011;64500;52.632;20.656;2023-05-08T15:26:22;7.50;;;2.30;;